sensor_id;sensor_type;location;lat;lon;timestamp;P1;durP1;ratioP1;P2;durP2;ratioP2
25511;SDS011;13414;44.534;18.700;2023-02-28T00:00:36;190.05;;;79.32;;
25511;SDS011;13414;44.534;18.700;2023-02-28T00:03:05;194.57;;;80.80;;
25511;SDS011;13414;44.534;18.700;2023-02-28T00:05:32;199.70;;;82.35;;
25511;SDS011;13414;44.534;18.700;2023-02-28T00:08:00;200.25;;;86.95;;
25511;SDS011;13414;44.534;18.700;2023-02-28T00:10:29;191.50;;;83.00;;
25511;SDS011;13414;44.534;18.700;2023-02-28T00:12:59;206.85;;;93.43;;
25511;SDS011;13414;44.534;18.700;2023-02-28T00:15:28;237.68;;;113.50;;
25511;SDS011;13414;44.534;18.700;2023-02-28T00:17:56;233.32;;;119.45;;
25511;SDS011;13414;44.534;18.700;2023-02-28T00:20:24;231.55;;;125.40;;
25511;SDS011;13414;44.534;18.700;2023-02-28T00:22:52;1999.90;;;367.25;;
25511;SDS011;13414;44.534;18.700;2023-02-28T00:25:21;358.42;;;151.00;;
25511;SDS011;13414;44.534;18.700;2023-02-28T00:27:51;342.58;;;152.02;;
25511;SDS011;13414;44.534;18.700;2023-02-28T00:30:19;271.90;;;136.55;;
25511;SDS011;13414;44.534;18.700;2023-02-28T00:32:48;294.40;;;141.90;;
25511;SDS011;13414;44.534;18.700;2023-02-28T00:35:16;326.73;;;166.57;;
25511;SDS011;13414;44.534;18.700;2023-02-28T00:37:43;290.00;;;152.40;;
25511;SDS011;13414;44.534;18.700;2023-02-28T00:40:11;297.33;;;150.18;;
25511;SDS011;13414;44.534;18.700;2023-02-28T00:42:39;282.40;;;148.23;;
25511;SDS011;13414;44.534;18.700;2023-02-28T00:45:08;351.70;;;160.10;;
25511;SDS011;13414;44.534;18.700;2023-02-28T00:47:37;254.68;;;129.57;;
25511;SDS011;13414;44.534;18.700;2023-02-28T00:50:05;246.35;;;125.30;;
25511;SDS011;13414;44.534;18.700;2023-02-28T00:52:33;247.73;;;130.23;;
25511;SDS011;13414;44.534;18.700;2023-02-28T00:55:00;275.17;;;143.48;;
25511;SDS011;13414;44.534;18.700;2023-02-28T00:57:27;267.63;;;141.07;;
25511;SDS011;13414;44.534;18.700;2023-02-28T00:59:55;242.38;;;130.15;;
25511;SDS011;13414;44.534;18.700;2023-02-28T01:02:24;216.88;;;112.15;;
25511;SDS011;13414;44.534;18.700;2023-02-28T01:04:52;206.25;;;104.68;;
25511;SDS011;13414;44.534;18.700;2023-02-28T01:07:19;204.30;;;102.32;;
25511;SDS011;13414;44.534;18.700;2023-02-28T01:09:46;193.43;;;102.13;;
25511;SDS011;13414;44.534;18.700;2023-02-28T01:12:14;185.30;;;89.93;;
25511;SDS011;13414;44.534;18.700;2023-02-28T01:14:42;182.60;;;94.40;;
25511;SDS011;13414;44.534;18.700;2023-02-28T01:17:10;181.60;;;94.85;;
25511;SDS011;13414;44.534;18.700;2023-02-28T01:19:39;171.35;;;85.13;;
25511;SDS011;13414;44.534;18.700;2023-02-28T01:22:06;162.25;;;80.47;;
25511;SDS011;13414;44.534;18.700;2023-02-28T01:24:34;161.45;;;79.63;;
25511;SDS011;13414;44.534;18.700;2023-02-28T01:27:01;146.30;;;67.82;;
25511;SDS011;13414;44.534;18.700;2023-02-28T01:29:29;145.15;;;67.20;;
25511;SDS011;13414;44.534;18.700;2023-02-28T01:31:57;172.18;;;74.43;;
25511;SDS011;13414;44.534;18.700;2023-02-28T01:34:24;1377.45;;;259.67;;
25511;SDS011;13414;44.534;18.700;2023-02-28T01:36:54;262.30;;;108.88;;
25511;SDS011;13414;44.534;18.700;2023-02-28T01:39:24;255.68;;;110.32;;
25511;SDS011;13414;44.534;18.700;2023-02-28T01:41:51;209.90;;;94.93;;
25511;SDS011;13414;44.534;18.700;2023-02-28T01:47:24;255.90;;;119.75;;
25511;SDS011;13414;44.534;18.700;2023-02-28T01:50:06;291.77;;;127.97;;
25511;SDS011;13414;44.534;18.700;2023-02-28T01:52:37;303.80;;;135.60;;
25511;SDS011;13414;44.534;18.700;2023-02-28T01:55:05;264.23;;;126.95;;
25511;SDS011;13414;44.534;18.700;2023-02-28T01:57:36;279.08;;;127.93;;
25511;SDS011;13414;44.534;18.700;2023-02-28T02:00:08;163.30;;;78.93;;
25511;SDS011;13414;44.534;18.700;2023-02-28T02:02:38;115.00;;;55.55;;
25511;SDS011;13414;44.534;18.700;2023-02-28T02:05:10;112.68;;;55.67;;
25511;SDS011;13414;44.534;18.700;2023-02-28T02:07:41;107.63;;;51.50;;
25511;SDS011;13414;44.534;18.700;2023-02-28T02:10:13;101.18;;;50.85;;
25511;SDS011;13414;44.534;18.700;2023-02-28T02:12:48;83.05;;;42.33;;
25511;SDS011;13414;44.534;18.700;2023-02-28T02:15:28;69.25;;;36.70;;
25511;SDS011;13414;44.534;18.700;2023-02-28T02:18:01;64.57;;;32.03;;
25511;SDS011;13414;44.534;18.700;2023-02-28T02:20:46;60.17;;;28.92;;
25511;SDS011;13414;44.534;18.700;2023-02-28T02:23:40;50.25;;;26.83;;
25511;SDS011;13414;44.534;18.700;2023-02-28T02:26:52;45.97;;;25.05;;
25511;SDS011;13414;44.534;18.700;2023-02-28T02:29:47;44.38;;;22.45;;
25511;SDS011;13414;44.534;18.700;2023-02-28T02:35:44;39.30;;;22.33;;
25511;SDS011;13414;44.534;18.700;2023-02-28T02:38:18;34.38;;;20.33;;
25511;SDS011;13414;44.534;18.700;2023-02-28T02:40:58;34.75;;;20.92;;
25511;SDS011;13414;44.534;18.700;2023-02-28T02:43:33;36.72;;;21.20;;
25511;SDS011;13414;44.534;18.700;2023-02-28T02:46:06;32.67;;;20.27;;
25511;SDS011;13414;44.534;18.700;2023-02-28T02:48:39;35.10;;;21.48;;
25511;SDS011;13414;44.534;18.700;2023-02-28T02:51:11;34.88;;;22.30;;
25511;SDS011;13414;44.534;18.700;2023-02-28T02:53:42;34.10;;;22.75;;
25511;SDS011;13414;44.534;18.700;2023-02-28T02:56:15;35.65;;;23.98;;
25511;SDS011;13414;44.534;18.700;2023-02-28T02:58:47;32.53;;;22.67;;
25511;SDS011;13414;44.534;18.700;2023-02-28T03:01:18;31.77;;;22.17;;
25511;SDS011;13414;44.534;18.700;2023-02-28T03:03:54;32.65;;;22.88;;
25511;SDS011;13414;44.534;18.700;2023-02-28T03:06:25;33.38;;;22.15;;
25511;SDS011;13414;44.534;18.700;2023-02-28T03:08:52;28.75;;;20.85;;
25511;SDS011;13414;44.534;18.700;2023-02-28T03:11:21;33.50;;;23.17;;
25511;SDS011;13414;44.534;18.700;2023-02-28T03:13:54;30.98;;;22.63;;
25511;SDS011;13414;44.534;18.700;2023-02-28T03:16:45;31.80;;;22.13;;
25511;SDS011;13414;44.534;18.700;2023-02-28T03:19:24;32.08;;;22.25;;
25511;SDS011;13414;44.534;18.700;2023-02-28T03:22:05;30.35;;;20.80;;
25511;SDS011;13414;44.534;18.700;2023-02-28T03:24:53;27.83;;;19.65;;
25511;SDS011;13414;44.534;18.700;2023-02-28T03:27:26;28.02;;;19.52;;
25511;SDS011;13414;44.534;18.700;2023-02-28T03:29:58;32.65;;;20.95;;
25511;SDS011;13414;44.534;18.700;2023-02-28T03:32:31;32.17;;;20.50;;
25511;SDS011;13414;44.534;18.700;2023-02-28T03:35:05;29.17;;;19.77;;
25511;SDS011;13414;44.534;18.700;2023-02-28T03:37:40;27.42;;;19.20;;
25511;SDS011;13414;44.534;18.700;2023-02-28T03:40:12;28.10;;;18.90;;
25511;SDS011;13414;44.534;18.700;2023-02-28T03:42:43;27.10;;;18.08;;
25511;SDS011;13414;44.534;18.700;2023-02-28T03:45:15;29.75;;;18.35;;
25511;SDS011;13414;44.534;18.700;2023-02-28T03:47:47;27.77;;;16.27;;
25511;SDS011;13414;44.534;18.700;2023-02-28T03:50:20;25.00;;;16.00;;
25511;SDS011;13414;44.534;18.700;2023-02-28T03:52:53;26.25;;;16.90;;
25511;SDS011;13414;44.534;18.700;2023-02-28T03:55:27;28.90;;;16.08;;
25511;SDS011;13414;44.534;18.700;2023-02-28T03:57:58;25.10;;;16.10;;
25511;SDS011;13414;44.534;18.700;2023-02-28T04:00:32;25.23;;;16.35;;
25511;SDS011;13414;44.534;18.700;2023-02-28T04:03:03;24.77;;;15.10;;
25511;SDS011;13414;44.534;18.700;2023-02-28T04:05:31;26.15;;;16.35;;
25511;SDS011;13414;44.534;18.700;2023-02-28T04:08:07;25.23;;;16.13;;
25511;SDS011;13414;44.534;18.700;2023-02-28T04:10:35;25.00;;;16.27;;
25511;SDS011;13414;44.534;18.700;2023-02-28T04:13:02;23.48;;;15.30;;
25511;SDS011;13414;44.534;18.700;2023-02-28T04:15:30;25.85;;;16.08;;
25511;SDS011;13414;44.534;18.700;2023-02-28T04:17:57;24.40;;;16.42;;
25511;SDS011;13414;44.534;18.700;2023-02-28T04:20:25;27.92;;;17.90;;
25511;SDS011;13414;44.534;18.700;2023-02-28T04:22:52;30.23;;;18.42;;
25511;SDS011;13414;44.534;18.700;2023-02-28T04:25:21;29.45;;;17.88;;
25511;SDS011;13414;44.534;18.700;2023-02-28T04:27:49;29.58;;;19.00;;
25511;SDS011;13414;44.534;18.700;2023-02-28T04:30:16;33.90;;;19.98;;
25511;SDS011;13414;44.534;18.700;2023-02-28T04:32:44;29.52;;;18.58;;
25511;SDS011;13414;44.534;18.700;2023-02-28T04:35:11;28.48;;;17.98;;
25511;SDS011;13414;44.534;18.700;2023-02-28T04:37:39;31.90;;;18.85;;
25511;SDS011;13414;44.534;18.700;2023-02-28T04:40:07;33.03;;;19.67;;
25511;SDS011;13414;44.534;18.700;2023-02-28T04:42:37;34.92;;;22.17;;
25511;SDS011;13414;44.534;18.700;2023-02-28T04:45:04;34.30;;;22.25;;
25511;SDS011;13414;44.534;18.700;2023-02-28T04:47:35;32.80;;;23.50;;
25511;SDS011;13414;44.534;18.700;2023-02-28T04:50:03;32.47;;;24.42;;
25511;SDS011;13414;44.534;18.700;2023-02-28T04:52:31;34.53;;;24.50;;
25511;SDS011;13414;44.534;18.700;2023-02-28T04:54:59;34.35;;;24.63;;
25511;SDS011;13414;44.534;18.700;2023-02-28T04:57:27;34.53;;;25.20;;
25511;SDS011;13414;44.534;18.700;2023-02-28T04:59:56;33.15;;;23.83;;
25511;SDS011;13414;44.534;18.700;2023-02-28T05:02:24;32.55;;;24.85;;
25511;SDS011;13414;44.534;18.700;2023-02-28T05:04:52;34.45;;;26.05;;
25511;SDS011;13414;44.534;18.700;2023-02-28T05:07:19;34.75;;;26.95;;
25511;SDS011;13414;44.534;18.700;2023-02-28T05:09:47;37.50;;;27.20;;
25511;SDS011;13414;44.534;18.700;2023-02-28T05:12:15;36.55;;;27.92;;
25511;SDS011;13414;44.534;18.700;2023-02-28T05:14:42;34.53;;;26.23;;
25511;SDS011;13414;44.534;18.700;2023-02-28T05:17:11;36.55;;;27.38;;
25511;SDS011;13414;44.534;18.700;2023-02-28T05:19:39;36.70;;;26.83;;
25511;SDS011;13414;44.534;18.700;2023-02-28T05:22:11;37.17;;;26.60;;
25511;SDS011;13414;44.534;18.700;2023-02-28T05:24:41;34.72;;;25.63;;
25511;SDS011;13414;44.534;18.700;2023-02-28T05:27:08;39.17;;;27.55;;
25511;SDS011;13414;44.534;18.700;2023-02-28T05:29:36;36.40;;;24.95;;
25511;SDS011;13414;44.534;18.700;2023-02-28T05:32:09;37.33;;;27.13;;
25511;SDS011;13414;44.534;18.700;2023-02-28T05:34:38;42.63;;;27.50;;
25511;SDS011;13414;44.534;18.700;2023-02-28T05:37:06;43.90;;;26.92;;
25511;SDS011;13414;44.534;18.700;2023-02-28T05:39:39;43.40;;;28.27;;
25511;SDS011;13414;44.534;18.700;2023-02-28T05:42:06;42.78;;;28.92;;
25511;SDS011;13414;44.534;18.700;2023-02-28T05:44:35;38.42;;;26.83;;
25511;SDS011;13414;44.534;18.700;2023-02-28T05:47:02;37.53;;;25.85;;
25511;SDS011;13414;44.534;18.700;2023-02-28T05:49:30;35.47;;;24.73;;
25511;SDS011;13414;44.534;18.700;2023-02-28T05:51:59;46.83;;;28.83;;
25511;SDS011;13414;44.534;18.700;2023-02-28T05:54:26;61.92;;;36.00;;
25511;SDS011;13414;44.534;18.700;2023-02-28T05:56:54;91.32;;;48.90;;
25511;SDS011;13414;44.534;18.700;2023-02-28T05:59:21;49.38;;;30.05;;
25511;SDS011;13414;44.534;18.700;2023-02-28T06:01:49;39.35;;;25.95;;
25511;SDS011;13414;44.534;18.700;2023-02-28T06:04:18;40.22;;;23.88;;
25511;SDS011;13414;44.534;18.700;2023-02-28T06:06:47;37.25;;;24.50;;
25511;SDS011;13414;44.534;18.700;2023-02-28T06:09:16;35.38;;;24.13;;
25511;SDS011;13414;44.534;18.700;2023-02-28T06:11:45;44.65;;;27.80;;
25511;SDS011;13414;44.534;18.700;2023-02-28T06:14:14;40.70;;;28.25;;
25511;SDS011;13414;44.534;18.700;2023-02-28T06:16:43;41.95;;;27.40;;
25511;SDS011;13414;44.534;18.700;2023-02-28T06:19:11;55.15;;;32.50;;
25511;SDS011;13414;44.534;18.700;2023-02-28T06:21:40;45.35;;;30.30;;
25511;SDS011;13414;44.534;18.700;2023-02-28T06:24:08;50.97;;;32.70;;
25511;SDS011;13414;44.534;18.700;2023-02-28T06:26:36;49.22;;;31.13;;
25511;SDS011;13414;44.534;18.700;2023-02-28T06:29:04;80.53;;;39.40;;
25511;SDS011;13414;44.534;18.700;2023-02-28T06:31:32;70.25;;;37.22;;
25511;SDS011;13414;44.534;18.700;2023-02-28T06:34:00;63.95;;;37.97;;
25511;SDS011;13414;44.534;18.700;2023-02-28T06:36:27;74.32;;;43.85;;
25511;SDS011;13414;44.534;18.700;2023-02-28T06:38:55;92.60;;;48.40;;
25511;SDS011;13414;44.534;18.700;2023-02-28T06:41:24;102.72;;;59.08;;
25511;SDS011;13414;44.534;18.700;2023-02-28T06:43:53;95.07;;;52.28;;
25511;SDS011;13414;44.534;18.700;2023-02-28T06:46:21;92.65;;;50.45;;
25511;SDS011;13414;44.534;18.700;2023-02-28T06:48:49;83.95;;;48.67;;
25511;SDS011;13414;44.534;18.700;2023-02-28T06:51:17;72.07;;;43.03;;
25511;SDS011;13414;44.534;18.700;2023-02-28T06:53:47;71.00;;;41.63;;
25511;SDS011;13414;44.534;18.700;2023-02-28T06:56:15;71.47;;;43.20;;
25511;SDS011;13414;44.534;18.700;2023-02-28T06:58:46;66.13;;;40.05;;
25511;SDS011;13414;44.534;18.700;2023-02-28T07:01:16;61.13;;;38.70;;
25511;SDS011;13414;44.534;18.700;2023-02-28T07:03:44;55.72;;;35.85;;
25511;SDS011;13414;44.534;18.700;2023-02-28T07:06:12;54.75;;;35.00;;
25511;SDS011;13414;44.534;18.700;2023-02-28T07:08:39;63.42;;;40.22;;
25511;SDS011;13414;44.534;18.700;2023-02-28T07:11:07;60.63;;;37.85;;
25511;SDS011;13414;44.534;18.700;2023-02-28T07:13:34;55.30;;;36.08;;
25511;SDS011;13414;44.534;18.700;2023-02-28T07:16:03;49.45;;;32.22;;
25511;SDS011;13414;44.534;18.700;2023-02-28T07:18:34;56.83;;;36.70;;
25511;SDS011;13414;44.534;18.700;2023-02-28T07:21:02;58.10;;;35.58;;
25511;SDS011;13414;44.534;18.700;2023-02-28T07:23:31;46.97;;;30.40;;
25511;SDS011;13414;44.534;18.700;2023-02-28T07:25:58;47.38;;;28.95;;
25511;SDS011;13414;44.534;18.700;2023-02-28T07:28:26;48.03;;;31.00;;
25511;SDS011;13414;44.534;18.700;2023-02-28T07:30:54;45.95;;;29.35;;
25511;SDS011;13414;44.534;18.700;2023-02-28T07:33:21;62.65;;;40.25;;
25511;SDS011;13414;44.534;18.700;2023-02-28T07:35:50;61.50;;;35.97;;
25511;SDS011;13414;44.534;18.700;2023-02-28T07:38:18;52.75;;;33.30;;
25511;SDS011;13414;44.534;18.700;2023-02-28T07:40:45;59.42;;;36.40;;
25511;SDS011;13414;44.534;18.700;2023-02-28T07:43:13;51.45;;;33.20;;
25511;SDS011;13414;44.534;18.700;2023-02-28T07:45:40;53.03;;;34.75;;
25511;SDS011;13414;44.534;18.700;2023-02-28T07:48:08;47.70;;;31.50;;
25511;SDS011;13414;44.534;18.700;2023-02-28T07:50:35;48.08;;;31.67;;
25511;SDS011;13414;44.534;18.700;2023-02-28T07:53:04;45.28;;;30.30;;
25511;SDS011;13414;44.534;18.700;2023-02-28T07:55:32;37.85;;;24.33;;
25511;SDS011;13414;44.534;18.700;2023-02-28T07:57:59;34.90;;;23.73;;
25511;SDS011;13414;44.534;18.700;2023-02-28T08:00:27;48.55;;;31.33;;
25511;SDS011;13414;44.534;18.700;2023-02-28T08:02:56;41.67;;;26.20;;
25511;SDS011;13414;44.534;18.700;2023-02-28T08:05:23;40.10;;;26.75;;
25511;SDS011;13414;44.534;18.700;2023-02-28T08:07:51;35.83;;;24.17;;
25511;SDS011;13414;44.534;18.700;2023-02-28T08:10:20;41.20;;;27.52;;
25511;SDS011;13414;44.534;18.700;2023-02-28T08:12:47;48.53;;;31.30;;
25511;SDS011;13414;44.534;18.700;2023-02-28T08:15:15;39.10;;;26.08;;
25511;SDS011;13414;44.534;18.700;2023-02-28T08:17:42;37.33;;;23.90;;
25511;SDS011;13414;44.534;18.700;2023-02-28T08:20:10;29.20;;;19.63;;
25511;SDS011;13414;44.534;18.700;2023-02-28T08:22:38;31.83;;;22.65;;
25511;SDS011;13414;44.534;18.700;2023-02-28T08:25:07;29.98;;;20.60;;
25511;SDS011;13414;44.534;18.700;2023-02-28T08:27:36;32.85;;;23.27;;
25511;SDS011;13414;44.534;18.700;2023-02-28T08:30:05;39.38;;;25.67;;
25511;SDS011;13414;44.534;18.700;2023-02-28T08:32:33;26.58;;;18.63;;
25511;SDS011;13414;44.534;18.700;2023-02-28T08:35:00;32.33;;;20.83;;
25511;SDS011;13414;44.534;18.700;2023-02-28T08:37:28;29.00;;;20.92;;
25511;SDS011;13414;44.534;18.700;2023-02-28T08:39:55;32.70;;;23.15;;
25511;SDS011;13414;44.534;18.700;2023-02-28T08:42:23;23.65;;;18.27;;
25511;SDS011;13414;44.534;18.700;2023-02-28T08:44:52;25.88;;;18.85;;
25511;SDS011;13414;44.534;18.700;2023-02-28T08:47:20;26.85;;;19.30;;
25511;SDS011;13414;44.534;18.700;2023-02-28T08:49:47;28.42;;;20.15;;
25511;SDS011;13414;44.534;18.700;2023-02-28T08:52:14;34.83;;;23.58;;
25511;SDS011;13414;44.534;18.700;2023-02-28T08:54:42;25.27;;;17.77;;
25511;SDS011;13414;44.534;18.700;2023-02-28T08:57:09;28.40;;;19.70;;
25511;SDS011;13414;44.534;18.700;2023-02-28T08:59:37;25.38;;;18.77;;
25511;SDS011;13414;44.534;18.700;2023-02-28T09:02:06;32.85;;;22.08;;
25511;SDS011;13414;44.534;18.700;2023-02-28T09:04:35;32.70;;;22.10;;
25511;SDS011;13414;44.534;18.700;2023-02-28T09:07:02;23.52;;;16.58;;
25511;SDS011;13414;44.534;18.700;2023-02-28T09:09:29;26.08;;;19.20;;
25511;SDS011;13414;44.534;18.700;2023-02-28T09:11:57;26.77;;;18.73;;
25511;SDS011;13414;44.534;18.700;2023-02-28T09:14:25;28.23;;;19.52;;
25511;SDS011;13414;44.534;18.700;2023-02-28T09:16:52;39.78;;;25.10;;
25511;SDS011;13414;44.534;18.700;2023-02-28T09:19:21;45.50;;;30.95;;
25511;SDS011;13414;44.534;18.700;2023-02-28T09:21:49;38.08;;;27.80;;
25511;SDS011;13414;44.534;18.700;2023-02-28T09:24:17;29.25;;;20.23;;
25511;SDS011;13414;44.534;18.700;2023-02-28T09:26:45;34.45;;;23.42;;
25511;SDS011;13414;44.534;18.700;2023-02-28T09:29:13;31.95;;;21.73;;
25511;SDS011;13414;44.534;18.700;2023-02-28T09:31:42;27.25;;;19.00;;
25511;SDS011;13414;44.534;18.700;2023-02-28T09:34:09;24.50;;;18.20;;
25511;SDS011;13414;44.534;18.700;2023-02-28T09:36:38;20.23;;;15.57;;
25511;SDS011;13414;44.534;18.700;2023-02-28T09:39:08;30.52;;;19.95;;
25511;SDS011;13414;44.534;18.700;2023-02-28T09:41:37;51.60;;;30.08;;
25511;SDS011;13414;44.534;18.700;2023-02-28T09:44:13;35.65;;;22.88;;
25511;SDS011;13414;44.534;18.700;2023-02-28T09:46:47;30.70;;;21.42;;
25511;SDS011;13414;44.534;18.700;2023-02-28T09:49:18;25.85;;;19.08;;
25511;SDS011;13414;44.534;18.700;2023-02-28T09:51:51;42.38;;;21.00;;
25511;SDS011;13414;44.534;18.700;2023-02-28T09:54:27;19.85;;;15.43;;
25511;SDS011;13414;44.534;18.700;2023-02-28T09:56:58;19.35;;;14.75;;
25511;SDS011;13414;44.534;18.700;2023-02-28T09:59:34;21.67;;;16.42;;
25511;SDS011;13414;44.534;18.700;2023-02-28T10:02:13;21.85;;;17.40;;
25511;SDS011;13414;44.534;18.700;2023-02-28T10:04:57;28.20;;;19.58;;
25511;SDS011;13414;44.534;18.700;2023-02-28T10:07:35;18.98;;;14.73;;
25511;SDS011;13414;44.534;18.700;2023-02-28T10:10:16;21.48;;;15.80;;
25511;SDS011;13414;44.534;18.700;2023-02-28T10:12:48;19.05;;;14.75;;
25511;SDS011;13414;44.534;18.700;2023-02-28T10:15:19;15.07;;;12.43;;
25511;SDS011;13414;44.534;18.700;2023-02-28T10:17:49;18.25;;;14.13;;
25511;SDS011;13414;44.534;18.700;2023-02-28T10:20:23;19.77;;;15.65;;
25511;SDS011;13414;44.534;18.700;2023-02-28T10:22:58;23.17;;;18.27;;
25511;SDS011;13414;44.534;18.700;2023-02-28T10:25:33;27.40;;;18.65;;
25511;SDS011;13414;44.534;18.700;2023-02-28T10:28:05;29.05;;;20.23;;
25511;SDS011;13414;44.534;18.700;2023-02-28T10:30:38;29.10;;;20.27;;
25511;SDS011;13414;44.534;18.700;2023-02-28T10:33:12;21.98;;;15.60;;
25511;SDS011;13414;44.534;18.700;2023-02-28T10:35:46;24.23;;;17.20;;
25511;SDS011;13414;44.534;18.700;2023-02-28T10:38:17;20.83;;;14.95;;
25511;SDS011;13414;44.534;18.700;2023-02-28T10:40:46;22.88;;;16.23;;
25511;SDS011;13414;44.534;18.700;2023-02-28T10:43:19;22.27;;;17.02;;
25511;SDS011;13414;44.534;18.700;2023-02-28T10:46:02;22.50;;;16.90;;
25511;SDS011;13414;44.534;18.700;2023-02-28T10:48:36;25.42;;;18.25;;
25511;SDS011;13414;44.534;18.700;2023-02-28T10:51:05;24.60;;;19.23;;
25511;SDS011;13414;44.534;18.700;2023-02-28T10:53:45;26.63;;;19.52;;
25511;SDS011;13414;44.534;18.700;2023-02-28T10:56:15;22.52;;;16.80;;
25511;SDS011;13414;44.534;18.700;2023-02-28T10:58:51;20.65;;;15.95;;
25511;SDS011;13414;44.534;18.700;2023-02-28T11:01:20;25.13;;;18.63;;
25511;SDS011;13414;44.534;18.700;2023-02-28T11:03:49;21.75;;;17.08;;
25511;SDS011;13414;44.534;18.700;2023-02-28T11:06:18;23.02;;;17.63;;
25511;SDS011;13414;44.534;18.700;2023-02-28T11:08:50;31.52;;;22.85;;
25511;SDS011;13414;44.534;18.700;2023-02-28T11:11:20;37.83;;;26.48;;
25511;SDS011;13414;44.534;18.700;2023-02-28T11:13:50;32.28;;;24.88;;
25511;SDS011;13414;44.534;18.700;2023-02-28T11:16:19;36.30;;;26.50;;
25511;SDS011;13414;44.534;18.700;2023-02-28T11:18:49;35.30;;;25.90;;
25511;SDS011;13414;44.534;18.700;2023-02-28T11:21:20;37.17;;;27.10;;
25511;SDS011;13414;44.534;18.700;2023-02-28T11:23:52;40.05;;;28.40;;
25511;SDS011;13414;44.534;18.700;2023-02-28T11:26:38;39.83;;;27.77;;
25511;SDS011;13414;44.534;18.700;2023-02-28T11:29:10;42.90;;;30.45;;
25511;SDS011;13414;44.534;18.700;2023-02-28T11:37:13;39.47;;;28.48;;
25511;SDS011;13414;44.534;18.700;2023-02-28T11:39:44;43.65;;;28.48;;
25511;SDS011;13414;44.534;18.700;2023-02-28T11:42:23;42.53;;;28.60;;
25511;SDS011;13414;44.534;18.700;2023-02-28T11:45:15;47.10;;;32.13;;
25511;SDS011;13414;44.534;18.700;2023-02-28T11:47:51;45.85;;;29.98;;
25511;SDS011;13414;44.534;18.700;2023-02-28T11:50:33;45.78;;;29.98;;
25511;SDS011;13414;44.534;18.700;2023-02-28T11:53:10;43.92;;;29.77;;
25511;SDS011;13414;44.534;18.700;2023-02-28T11:55:49;39.78;;;26.40;;
25511;SDS011;13414;44.534;18.700;2023-02-28T11:58:33;38.90;;;25.80;;
25511;SDS011;13414;44.534;18.700;2023-02-28T12:01:13;48.17;;;30.48;;
25511;SDS011;13414;44.534;18.700;2023-02-28T12:03:55;43.47;;;29.35;;
25511;SDS011;13414;44.534;18.700;2023-02-28T12:06:32;45.22;;;30.23;;
25511;SDS011;13414;44.534;18.700;2023-02-28T12:09:10;46.85;;;32.00;;
25511;SDS011;13414;44.534;18.700;2023-02-28T12:11:51;46.42;;;31.88;;
25511;SDS011;13414;44.534;18.700;2023-02-28T12:14:44;45.47;;;31.23;;
25511;SDS011;13414;44.534;18.700;2023-02-28T12:17:43;41.80;;;29.02;;
25511;SDS011;13414;44.534;18.700;2023-02-28T12:20:23;43.72;;;30.90;;
25511;SDS011;13414;44.534;18.700;2023-02-28T12:23:03;44.75;;;30.85;;
25511;SDS011;13414;44.534;18.700;2023-02-28T12:25:48;41.42;;;29.95;;
25511;SDS011;13414;44.534;18.700;2023-02-28T12:28:25;47.75;;;32.85;;
25511;SDS011;13414;44.534;18.700;2023-02-28T12:30:57;46.97;;;33.22;;
25511;SDS011;13414;44.534;18.700;2023-02-28T12:33:28;46.17;;;31.20;;
25511;SDS011;13414;44.534;18.700;2023-02-28T12:36:03;49.22;;;32.08;;
25511;SDS011;13414;44.534;18.700;2023-02-28T12:38:38;39.53;;;28.13;;
25511;SDS011;13414;44.534;18.700;2023-02-28T12:41:10;40.83;;;28.35;;
25511;SDS011;13414;44.534;18.700;2023-02-28T12:43:44;37.80;;;25.67;;
25511;SDS011;13414;44.534;18.700;2023-02-28T12:46:15;43.25;;;28.15;;
25511;SDS011;13414;44.534;18.700;2023-02-28T12:48:46;45.53;;;29.77;;
25511;SDS011;13414;44.534;18.700;2023-02-28T12:51:17;42.58;;;29.25;;
25511;SDS011;13414;44.534;18.700;2023-02-28T12:53:49;40.38;;;30.02;;
25511;SDS011;13414;44.534;18.700;2023-02-28T12:56:30;41.55;;;31.33;;
25511;SDS011;13414;44.534;18.700;2023-02-28T12:59:10;54.67;;;36.88;;
25511;SDS011;13414;44.534;18.700;2023-02-28T13:02:00;55.97;;;40.05;;
25511;SDS011;13414;44.534;18.700;2023-02-28T13:07:40;48.80;;;34.58;;
25511;SDS011;13414;44.534;18.700;2023-02-28T13:10:23;48.85;;;35.55;;
25511;SDS011;13414;44.534;18.700;2023-02-28T13:12:52;45.83;;;31.52;;
25511;SDS011;13414;44.534;18.700;2023-02-28T13:15:24;51.03;;;35.00;;
25511;SDS011;13414;44.534;18.700;2023-02-28T13:17:54;49.83;;;34.53;;
25511;SDS011;13414;44.534;18.700;2023-02-28T13:20:23;53.55;;;36.72;;
25511;SDS011;13414;44.534;18.700;2023-02-28T13:22:53;47.10;;;33.85;;
25511;SDS011;13414;44.534;18.700;2023-02-28T13:31:26;44.15;;;31.27;;
25511;SDS011;13414;44.534;18.700;2023-02-28T13:34:13;46.53;;;32.63;;
25511;SDS011;13414;44.534;18.700;2023-02-28T13:36:42;50.38;;;33.28;;
25511;SDS011;13414;44.534;18.700;2023-02-28T13:42:32;45.20;;;28.73;;
25511;SDS011;13414;44.534;18.700;2023-02-28T13:45:22;39.55;;;26.90;;
25511;SDS011;13414;44.534;18.700;2023-02-28T13:47:53;44.40;;;28.17;;
25511;SDS011;13414;44.534;18.700;2023-02-28T13:50:24;65.60;;;41.53;;
25511;SDS011;13414;44.534;18.700;2023-02-28T13:53:00;60.70;;;39.05;;
25511;SDS011;13414;44.534;18.700;2023-02-28T13:56:01;56.35;;;35.78;;
25511;SDS011;13414;44.534;18.700;2023-02-28T13:58:41;48.28;;;31.33;;
25511;SDS011;13414;44.534;18.700;2023-02-28T14:01:16;56.88;;;35.70;;
25511;SDS011;13414;44.534;18.700;2023-02-28T14:03:58;49.13;;;30.80;;
25511;SDS011;13414;44.534;18.700;2023-02-28T14:06:46;47.55;;;32.03;;
25511;SDS011;13414;44.534;18.700;2023-02-28T14:09:17;57.17;;;36.00;;
25511;SDS011;13414;44.534;18.700;2023-02-28T14:11:50;39.73;;;25.73;;
25511;SDS011;13414;44.534;18.700;2023-02-28T14:17:24;42.17;;;26.75;;
25511;SDS011;13414;44.534;18.700;2023-02-28T14:19:54;46.38;;;30.40;;
25511;SDS011;13414;44.534;18.700;2023-02-28T14:22:39;46.95;;;29.60;;
25511;SDS011;13414;44.534;18.700;2023-02-28T14:25:22;49.40;;;31.27;;
25511;SDS011;13414;44.534;18.700;2023-02-28T14:27:56;54.85;;;33.85;;
25511;SDS011;13414;44.534;18.700;2023-02-28T14:30:52;55.63;;;34.35;;
25511;SDS011;13414;44.534;18.700;2023-02-28T14:33:27;62.65;;;37.45;;
25511;SDS011;13414;44.534;18.700;2023-02-28T14:36:16;63.33;;;36.35;;
25511;SDS011;13414;44.534;18.700;2023-02-28T14:38:47;62.15;;;36.83;;
25511;SDS011;13414;44.534;18.700;2023-02-28T14:41:23;66.03;;;39.03;;
25511;SDS011;13414;44.534;18.700;2023-02-28T14:44:01;62.92;;;35.95;;
25511;SDS011;13414;44.534;18.700;2023-02-28T14:46:32;54.42;;;32.92;;
25511;SDS011;13414;44.534;18.700;2023-02-28T14:49:03;48.63;;;29.80;;
25511;SDS011;13414;44.534;18.700;2023-02-28T14:51:36;45.05;;;27.35;;
25511;SDS011;13414;44.534;18.700;2023-02-28T14:54:04;44.17;;;28.55;;
25511;SDS011;13414;44.534;18.700;2023-02-28T14:56:34;53.55;;;30.38;;
25511;SDS011;13414;44.534;18.700;2023-02-28T14:59:05;54.22;;;30.88;;